タンソンニャット国際空港 (ホーチミン)の過去48時間の天気

タンソンニャット国際空港 (ホーチミン) (Ho Chi Minh)

現在時刻: 9/23 07:28 +07 (9/23 00:28 UTC) 以下の時間は現地時間です。

過去48時間のMETAR気象情報
時間 風向 風速(m/s) 視程 気温(℃) 湿度(%) 気圧(hPa) 天気現象
23 07:00 西北西 1 10km以上 26 94 1009
23 06:30 不定 1 10km以上 25 100 1008
23 06:00 北北西 1 10km以上 25 100 1009
23 05:30 西 1 10km以上 25 100 1008
23 05:00 静穏 0 10km以上 25 100 1008
23 04:30 西 1 10km以上 25 100 1008
23 04:00 西 1 10km以上 25 100 1008
23 03:30 西 1 10km以上 25 100 1008
23 03:00 西 1 10km以上 25 100 1008
23 02:30 西 1 10km以上 25 100 1008
23 02:00 西北西 1 8000m 25 100 1009
23 01:30 北西 1 8000m 25 100 1009
23 01:00 西北西 1 8000m 25 100 1009
23 00:30 西 1 8000m 25 100 1010 弱い雨
23 00:00 西 1 8000m 26 94 1010 弱い雨
22 23:30 静穏 0 8000m 25 100 1010 弱い雨
22 23:00 1 8000m 25 100 1010 弱い雨
22 22:30 1 8000m 25 100 1011 弱い雨
22 22:00 1 8000m 25 100 1011 弱い雨
22 21:30 北北西 1 8000m 25 100 1011 弱い雨
22 21:00 北北西 2 10km以上 26 94 1011 弱い雨
22 20:30 不定 2 10km以上 26 94 1010 弱い雨
22 20:00 西 3 10km以上 27 79 1010 周辺で雷
22 19:30 西南西 4 10km以上 27 79 1009
22 19:00 西南西 4 10km以上 27 79 1008
22 18:30 南西 4 10km以上 28 84 1007
22 18:00 南西 5 10km以上 28 84 1007
22 17:30 南南西 4 10km以上 28 84 1007
22 17:00 南南西 3 10km以上 28 84 1007
22 16:30 南南西 5 10km以上 29 79 1006
22 16:00 南南西 5 10km以上 29 79 1006
22 15:30 南南西 4 10km以上 30 75 1006
22 15:00 南南西 5 10km以上 30 75 1005
22 14:30 西 6 10km以上 31 62 1006
22 14:00 西南西 4 10km以上 32 67 1006
22 13:30 西 4 10km以上 31 70 1006
22 13:00 西北西 5 10km以上 29 74 1007
22 12:30 西 4 10km以上 28 84 1007 弱いしゅう雨
22 12:00 北西 4 10km以上 29 74 1008 弱いしゅう雨
22 11:30 西南西 4 10km以上 31 70 1008
22 11:00 西南西 3 10km以上 31 75 1009
22 10:30 西南西 3 10km以上 31 70 1009
22 10:00 西南西 3 10km以上 31 70 1009
22 09:30 西 3 10km以上 30 75 1009
22 09:00 西南西 4 10km以上 29 79 1009
22 08:30 西 4 10km以上 29 79 1010
22 08:00 南西 4 10km以上 29 79 1009
22 07:30 南西 3 10km以上 28 84 1009
22 07:00 南南西 3 10km以上 27 89 1009
22 06:30 不定 1 10km以上 27 89 1008
22 06:00 不定 2 10km以上 26 94 1008
22 05:30 不定 2 10km以上 26 94 1008
22 05:00 不定 1 10km以上 26 94 1008
22 04:30 不定 1 10km以上 25 100 1007
22 04:00 不定 1 10km以上 26 94 1007
22 03:30 静穏 0 10km以上 25 100 1007
22 03:00 不定 1 10km以上 26 94 1007
22 02:30 不定 1 10km以上 26 94 1007
22 02:00 不定 2 10km以上 26 94 1008
22 01:30 不定 2 10km以上 26 94 1008
22 01:00 不定 2 10km以上 26 94 1009
22 00:30 南南西 2 10km以上 26 94 1009
22 00:00 南南西 2 10km以上 26 94 1009
21 23:30 不定 2 10km以上 26 94 1009
21 23:00 不定 1 10km以上 27 84 1009
21 22:30 南南西 2 10km以上 26 89 1010
21 22:00 2 10km以上 26 89 1010
21 21:30 静穏 0 10km以上 26 94 1010
21 21:00 不定 1 10km以上 26 94 1009
21 20:30 南東 1 10km以上 26 94 1009
21 20:00 南東 2 10km以上 26 94 1008
21 19:30 2 10km以上 25 100 1008
21 19:00 不定 1 10km以上 26 94 1007
21 18:30 不定 2 10km以上 26 94 1007 弱い雨
21 18:00 南東 2 10km以上 26 94 1007 弱い雨
21 17:30 東南東 2 10km以上 26 94 1006 弱い雨
21 17:00 2 10km以上 26 94 1006 弱い雨
21 16:30 南東 3 10km以上 26 94 1006 弱い雨
21 16:00 南東 3 10km以上 26 94 1006
21 15:30 不定 1 8000m 26 94 1005 弱い雨
21 15:00 北北西 2 7000m 25 100 1005 弱い雨
21 14:30 北北西 3 5000m 25 94 1007 雷雨
21 14:00 西北西 6 8000m 27 89 1007 しゅう雨
21 13:30 西南西 5 8000m 29 79 1007 弱いしゅう雨
21 13:00 南西 4 10km以上 32 59 1007
21 12:30 西南西 4 10km以上 32 56 1008
21 12:00 南南西 4 10km以上 32 63 1008
21 11:30 南西 5 10km以上 32 59 1008
21 11:00 西南西 4 10km以上 32 59 1009
21 10:30 西南西 4 10km以上 31 62 1009
21 10:00 南西 4 10km以上 31 66 1010
21 09:30 西南西 3 10km以上 31 66 1010
21 09:00 不定 2 10km以上 29 74 1010
21 08:30 不定 2 10km以上 28 79 1010
21 08:00 不定 2 10km以上 28 79 1010
21 07:30 不定 1 10km以上 27 89 1010
VVTS 230000Z 29002KT 9999 FEW017 BKN050 26/25 Q1009 NOSIG
VVTS 222330Z VRB02KT 9999 FEW017 BKN050 25/25 Q1008 NOSIG
VVTS 222300Z 33001KT 9999 FEW017 BKN050 25/25 Q1009 NOSIG
VVTS 222230Z 28002KT 9999 FEW017 BKN050 25/25 Q1008 NOSIG
VVTS 222200Z 00000KT 9999 FEW017 BKN050 25/25 Q1008 NOSIG
VVTS 222130Z 28001KT 9999 FEW017 BKN050 25/25 Q1008 NOSIG
VVTS 222100Z 28001KT 9999 FEW017 BKN050 25/25 Q1008 NOSIG
VVTS 222030Z 27002KT 9999 FEW017 BKN050 25/25 Q1008 NOSIG
VVTS 222000Z 28002KT 9999 FEW017 BKN050 25/25 Q1008 NOSIG
VVTS 221930Z 27002KT 9999 FEW015 BKN050 25/25 Q1008 NOSIG
VVTS 221900Z 30001KT 8000 FEW015 BKN050 25/25 Q1009 NOSIG
VVTS 221830Z 32001KT 8000 FEW015 BKN050 25/25 Q1009 NOSIG
VVTS 221800Z 29002KT 8000 FEW015 BKN050 25/25 Q1009 NOSIG
VVTS 221730Z 28002KT 8000 -RA SCT015 BKN050 25/25 Q1010 NOSIG
VVTS 221700Z 27001KT 8000 -RA SCT015 BKN050 26/25 Q1010 NOSIG
VVTS 221630Z 00000KT 8000 -RA SCT015 BKN050 25/25 Q1010 NOSIG
VVTS 221600Z 01002KT 8000 -RA SCT017 BKN050 25/25 Q1010 NOSIG
VVTS 221530Z 36001KT 8000 -RA SCT017 BKN050 25/25 Q1011 NOSIG
VVTS 221500Z 35001KT 8000 -RA SCT017 BKN050 25/25 Q1011 NOSIG
VVTS 221430Z 34002KT 8000 -RA SCT017 BKN050 25/25 Q1011 NOSIG
VVTS 221400Z 33003KT 9999 -RA SCT017 BKN050 26/25 Q1011 NOSIG
VVTS 221330Z VRB03KT 9999 -RA SCT017 BKN050 26/25 Q1010 NOSIG
VVTS 221300Z 26005KT 9999 VCTS SCT015 FEW017CB 27/23 Q1010 NOSIG RMK CB/N/NE
VVTS 221230Z 25008KT 9999 SCT015 FEW017CB 27/23 Q1009 NOSIG RMK CB/N
VVTS 221200Z 25008KT 9999 SCT015 FEW017CB 27/23 Q1008 NOSIG RMK CB/NW
VVTS 221130Z 23008KT 190V250 9999 SCT015 FEW017TCU SCT050 28/25 Q1007 NOSIG RMK TCU/NW
VVTS 221100Z 22009KT 9999 FEW015 SCT050 28/25 Q1007 NOSIG
VVTS 221030Z 21008KT 9999 FEW015 SCT050 28/25 Q1007 NOSIG
VVTS 221000Z 20006KT 170V230 9999 FEW015 SCT050 28/25 Q1007 NOSIG
VVTS 220930Z 21009KT 9999 SCT015 SCT050 29/25 Q1006 NOSIG
VVTS 220900Z 21009KT 9999 SCT015 SCT050 29/25 Q1006 NOSIG
VVTS 220830Z 21008KT 180V240 9999 SCT015 SCT050 30/25 Q1006 NOSIG
VVTS 220800Z 21010KT 9999 SCT015 SCT050 30/25 Q1005 NOSIG
VVTS 220730Z 26012KT 9999 SCT015 FEW017CB 31/23 Q1006 NOSIG RMK CB/SE
VVTS 220700Z 25007KT 220V280 9999 SCT015 FEW017CB 32/25 Q1006 NOSIG RMK CB/SE
VVTS 220630Z 27007KT 9999 SCT015 FEW017CB 31/25 Q1006 NOSIG RMK CB/E/SE/S
VVTS 220600Z 29009KT 270V340 9999 SCT015 FEW017TCU 29/24 Q1007 NOSIG RMK TCU/NE/E/SW/NW
VVTS 220530Z 28007KT 260V320 9999 -SHRA SCT015 FEW017TCU 28/25 Q1007 NOSIG RMK TCU OVER RWY
VVTS 220500Z 32007G19KT 260V010 9999 R25L/1100VP2000U -SHRA SCT015 FEW017TCU 29/24 Q1008 NOSIG RMK TCU OVER RW Y
VVTS 220430Z 25008KT 230V290 9999 SCT015 FEW017TCU 31/25 Q1008 NOSIG RMK TCU/S
VVTS 220400Z 25006KT 220V290 9999 BKN017 31/26 Q1009 NOSIG
VVTS 220330Z 25006KT 9999 BKN017 31/25 Q1009 NOSIG
VVTS 220300Z 24006KT 210V310 9999 BKN017 31/25 Q1009 NOSIG
VVTS 220230Z 26005KT 230V300 9999 SCT017 30/25 Q1009 NOSIG
VVTS 220200Z 25007KT 9999 SCT017 29/25 Q1009 NOSIG
VVTS 220130Z 26008KT 200V270 9999 SCT017 29/25 Q1010 NOSIG
VVTS 220100Z 23008KT 200V260 9999 SCT017 29/25 Q1009 NOSIG
VVTS 220030Z 23005KT 9999 FEW017 SCT050 28/25 Q1009 NOSIG
VVTS 220000Z 21005KT 9999 FEW015 SCT050 27/25 Q1009 NOSIG
VVTS 212330Z VRB01KT 9999 FEW015 SCT050 27/25 Q1008 NOSIG
VVTS 212300Z VRB03KT 9999 FEW015 SCT050 26/25 Q1008 NOSIG
VVTS 212230Z VRB03KT 9999 FEW015 SCT050 26/25 Q1008 NOSIG
VVTS 212200Z VRB02KT 9999 FEW015 SCT050 26/25 Q1008 NOSIG
VVTS 212130Z VRB01KT 9999 FEW015 SCT050 25/25 Q1007 NOSIG
VVTS 212100Z VRB01KT 9999 FEW015 SCT050 26/25 Q1007 NOSIG
VVTS 212030Z 00000KT 9999 FEW015 SCT050 25/25 Q1007 NOSIG
VVTS 212000Z VRB02KT 9999 FEW015 SCT050 26/25 Q1007 NOSIG
VVTS 211930Z VRB01KT 9999 FEW015 SCT050 26/25 Q1007 NOSIG
VVTS 211900Z VRB03KT 9999 FEW015 SCT050 26/25 Q1008 NOSIG
VVTS 211830Z VRB03KT 9999 FEW015 SCT050 26/25 Q1008 NOSIG
VVTS 211800Z VRB03KT 9999 FEW015 SCT050 26/25 Q1009 NOSIG
VVTS 211730Z 20004KT 160V220 9999 FEW015 SCT050 26/25 Q1009 NOSIG
VVTS 211700Z 20004KT 9999 SCT015 SCT050 26/25 Q1009 NOSIG
VVTS 211630Z VRB03KT 9999 SCT015 SCT050 26/25 Q1009 NOSIG
VVTS 211600Z VRB02KT 9999 SCT015 BKN050 27/24 Q1009 NOSIG
VVTS 211530Z 21003KT 9999 SCT015 BKN050 26/24 Q1010 NOSIG
VVTS 211500Z 19004KT 150V210 9999 SCT015 BKN050 26/24 Q1010 NOSIG
VVTS 211430Z 00000KT 9999 SCT015 BKN050 26/25 Q1010 NOSIG
VVTS 211400Z VRB01KT 9999 SCT015 BKN050 26/25 Q1009 NOSIG
VVTS 211330Z 14002KT 9999 SCT015 BKN050 26/25 Q1009 NOSIG
VVTS 211300Z 14003KT 9999 SCT015 BKN050 26/25 Q1008 NOSIG
VVTS 211230Z 09003KT 9999 SCT015 BKN050 25/25 Q1008 NOSIG
VVTS 211200Z VRB02KT 9999 SCT015 BKN050 26/25 Q1007 NOSIG
VVTS 211130Z VRB03KT 9999 -RA SCT015 BKN050 26/25 Q1007 NOSIG
VVTS 211100Z 13004KT 9999 -RA SCT015 BKN050 26/25 Q1007 NOSIG
VVTS 211030Z 12004KT 090V150 9999 -RA SCT015 BKN050 26/25 Q1006 NOSIG
VVTS 211000Z 10004KT 070V140 9999 -RA SCT015 BKN050 26/25 Q1006 NOSIG
VVTS 210930Z 13005KT 9999 -RA SCT015 BKN050 26/25 Q1006 NOSIG
VVTS 210900Z 13006KT 110V210 9999 SCT015 FEW017CB BKN050 26/25 Q1006 NOSIG RMK CB/SE
VVTS 210830Z VRB02KT 8000 -RA SCT015 FEW017CB BKN050 26/25 Q1005 NOSIG RMK CB/SE
VVTS 210800Z 33004KT 300V360 7000 -RA SCT015 FEW017CB BKN050 25/25 Q1005 NOSIG RMK CB/NE/SE
VVTS 210730Z 33006KT 270V020 5000 TSRA SCT013 SCT015CB 25/24 Q1007 NOSIG RMK CB OVER RWY
VVTS 210700Z 30012KT 8000 3000W SHRA BKN013 FEW015CB 27/25 Q1007 TEMPO TL0735 24015G28KT 1500 +TSRA RMK CB OVER RWY
VVTS 210630Z 24010KT 210V270 8000 -SHRA BKN015 FEW017CB 29/25 Q1007 TEMPO TL0710 24015G25KT 5000 TSRA RMK CB OVER RWY
VVTS 210600Z 22008KT 180V270 9999 SCT015 FEW017TCU 32/23 Q1007 NOSIG RMK TCU/SW
VVTS 210530Z 24007KT 220V280 9999 BKN017 32/22 Q1008 NOSIG
VVTS 210500Z 20008KT 170V240 9999 BKN015 32/24 Q1008 NOSIG
VVTS 210430Z 23009KT 210V290 9999 SCT015 32/23 Q1008 NOSIG
VVTS 210400Z 25007KT 200V280 9999 SCT015 32/23 Q1009 NOSIG
VVTS 210330Z 24007KT 210V280 9999 FEW015 SCT050 31/23 Q1009 NOSIG
VVTS 210300Z 22007KT 190V280 9999 FEW015 SCT050 31/24 Q1010 NOSIG
VVTS 210230Z 24005KT 190V290 9999 FEW015 SCT050 31/24 Q1010 NOSIG
VVTS 210200Z VRB03KT 9999 FEW015 SCT050 29/24 Q1010 NOSIG
VVTS 210130Z VRB03KT 9999 FEW017 BKN050 28/24 Q1010 NOSIG
VVTS 210100Z VRB03KT 9999 FEW017 BKN050 28/24 Q1010 NOSIG
VVTS 210030Z VRB01KT 9999 FEW017 BKN050 27/25 Q1010 NOSIG